sensor_id;sensor_type;location;lat;lon;timestamp;P1;durP1;ratioP1;P2;durP2;ratioP2
5811;SDS011;2932;52.400;9.558;2022-08-30T00:00:39;0.60;;;0.60;;
5811;SDS011;2932;52.400;9.558;2022-08-30T00:03:23;2.30;;;1.00;;
5811;SDS011;2932;52.400;9.558;2022-08-30T00:05:49;1.20;;;0.60;;
5811;SDS011;2932;52.400;9.558;2022-08-30T00:08:15;1.33;;;0.75;;
5811;SDS011;2932;52.400;9.558;2022-08-30T00:10:41;0.93;;;0.60;;
5811;SDS011;2932;52.400;9.558;2022-08-30T00:13:07;0.73;;;0.40;;
5811;SDS011;2932;52.400;9.558;2022-08-30T00:15:36;1.05;;;0.73;;
5811;SDS011;2932;52.400;9.558;2022-08-30T00:18:01;0.60;;;0.50;;
5811;SDS011;2932;52.400;9.558;2022-08-30T00:20:28;2.30;;;0.63;;
5811;SDS011;2932;52.400;9.558;2022-08-30T00:22:55;0.82;;;0.60;;
5811;SDS011;2932;52.400;9.558;2022-08-30T00:25:21;1.00;;;0.80;;
5811;SDS011;2932;52.400;9.558;2022-08-30T00:27:47;0.93;;;0.60;;
5811;SDS011;2932;52.400;9.558;2022-08-30T00:30:14;2.67;;;0.60;;
5811;SDS011;2932;52.400;9.558;2022-08-30T00:32:41;1.75;;;0.98;;
5811;SDS011;2932;52.400;9.558;2022-08-30T00:35:08;0.75;;;0.75;;
5811;SDS011;2932;52.400;9.558;2022-08-30T00:37:34;2.30;;;0.90;;
5811;SDS011;2932;52.400;9.558;2022-08-30T00:40:00;0.75;;;0.60;;
5811;SDS011;2932;52.400;9.558;2022-08-30T00:42:29;0.80;;;0.80;;
5811;SDS011;2932;52.400;9.558;2022-08-30T00:44:55;1.75;;;0.65;;
5811;SDS011;2932;52.400;9.558;2022-08-30T00:47:22;1.80;;;0.90;;
5811;SDS011;2932;52.400;9.558;2022-08-30T00:49:48;2.17;;;0.80;;
5811;SDS011;2932;52.400;9.558;2022-08-30T00:52:18;1.20;;;0.65;;
5811;SDS011;2932;52.400;9.558;2022-08-30T00:54:46;0.77;;;0.70;;
5811;SDS011;2932;52.400;9.558;2022-08-30T00:57:13;1.55;;;0.90;;
5811;SDS011;2932;52.400;9.558;2022-08-30T00:59:40;1.55;;;0.88;;
5811;SDS011;2932;52.400;9.558;2022-08-30T01:02:07;0.93;;;0.85;;
5811;SDS011;2932;52.400;9.558;2022-08-30T01:04:33;1.17;;;0.90;;
5811;SDS011;2932;52.400;9.558;2022-08-30T01:07:01;0.82;;;0.80;;
5811;SDS011;2932;52.400;9.558;2022-08-30T01:09:27;2.58;;;1.00;;
5811;SDS011;2932;52.400;9.558;2022-08-30T01:11:53;0.80;;;0.80;;
5811;SDS011;2932;52.400;9.558;2022-08-30T01:14:20;1.65;;;0.90;;
5811;SDS011;2932;52.400;9.558;2022-08-30T01:16:46;1.05;;;0.90;;
5811;SDS011;2932;52.400;9.558;2022-08-30T01:25:09;1.05;;;0.85;;
5811;SDS011;2932;52.400;9.558;2022-08-30T01:27:37;0.90;;;0.80;;
5811;SDS011;2932;52.400;9.558;2022-08-30T01:30:07;1.05;;;1.05;;
5811;SDS011;2932;52.400;9.558;2022-08-30T01:32:37;1.25;;;0.90;;
5811;SDS011;2932;52.400;9.558;2022-08-30T01:35:05;0.80;;;0.80;;
5811;SDS011;2932;52.400;9.558;2022-08-30T01:37:30;0.93;;;0.93;;
5811;SDS011;2932;52.400;9.558;2022-08-30T01:39:57;1.17;;;0.90;;
5811;SDS011;2932;52.400;9.558;2022-08-30T01:42:23;0.88;;;0.70;;
5811;SDS011;2932;52.400;9.558;2022-08-30T01:44:49;0.90;;;0.90;;
5811;SDS011;2932;52.400;9.558;2022-08-30T01:47:15;1.40;;;0.98;;
5811;SDS011;2932;52.400;9.558;2022-08-30T01:49:42;1.05;;;0.98;;
5811;SDS011;2932;52.400;9.558;2022-08-30T01:52:09;1.88;;;1.00;;
5811;SDS011;2932;52.400;9.558;2022-08-30T01:54:36;1.10;;;0.90;;
5811;SDS011;2932;52.400;9.558;2022-08-30T01:57:03;0.90;;;0.90;;
5811;SDS011;2932;52.400;9.558;2022-08-30T01:59:29;0.90;;;0.90;;
5811;SDS011;2932;52.400;9.558;2022-08-30T02:01:55;1.10;;;1.00;;
5811;SDS011;2932;52.400;9.558;2022-08-30T02:04:20;1.10;;;1.00;;
5811;SDS011;2932;52.400;9.558;2022-08-30T02:06:46;2.53;;;1.05;;
5811;SDS011;2932;52.400;9.558;2022-08-30T02:09:12;2.25;;;1.10;;
5811;SDS011;2932;52.400;9.558;2022-08-30T02:11:37;1.10;;;1.00;;
5811;SDS011;2932;52.400;9.558;2022-08-30T02:14:03;1.42;;;1.20;;
5811;SDS011;2932;52.400;9.558;2022-08-30T02:16:29;3.67;;;1.27;;
5811;SDS011;2932;52.400;9.558;2022-08-30T02:18:55;2.28;;;1.20;;
5811;SDS011;2932;52.400;9.558;2022-08-30T02:21:21;1.23;;;1.10;;
5811;SDS011;2932;52.400;9.558;2022-08-30T02:23:48;1.13;;;1.05;;
5811;SDS011;2932;52.400;9.558;2022-08-30T02:26:14;2.40;;;1.15;;
5811;SDS011;2932;52.400;9.558;2022-08-30T02:28:40;1.60;;;1.42;;
5811;SDS011;2932;52.400;9.558;2022-08-30T02:31:06;1.67;;;1.10;;
5811;SDS011;2932;52.400;9.558;2022-08-30T02:33:31;2.28;;;1.67;;
5811;SDS011;2932;52.400;9.558;2022-08-30T02:35:57;1.40;;;1.30;;
5811;SDS011;2932;52.400;9.558;2022-08-30T02:38:23;1.83;;;1.42;;
5811;SDS011;2932;52.400;9.558;2022-08-30T02:40:48;2.60;;;1.30;;
5811;SDS011;2932;52.400;9.558;2022-08-30T02:43:14;1.10;;;1.05;;
5811;SDS011;2932;52.400;9.558;2022-08-30T02:45:40;1.48;;;1.30;;
5811;SDS011;2932;52.400;9.558;2022-08-30T02:48:06;1.85;;;1.10;;
5811;SDS011;2932;52.400;9.558;2022-08-30T02:50:32;2.25;;;1.40;;
5811;SDS011;2932;52.400;9.558;2022-08-30T02:52:58;2.53;;;1.27;;
5811;SDS011;2932;52.400;9.558;2022-08-30T02:55:23;3.15;;;1.30;;
5811;SDS011;2932;52.400;9.558;2022-08-30T02:57:49;1.30;;;1.20;;
5811;SDS011;2932;52.400;9.558;2022-08-30T03:00:15;2.25;;;1.33;;
5811;SDS011;2932;52.400;9.558;2022-08-30T03:02:43;1.60;;;1.38;;
5811;SDS011;2932;52.400;9.558;2022-08-30T03:05:09;2.15;;;1.05;;
5811;SDS011;2932;52.400;9.558;2022-08-30T03:07:37;1.35;;;1.20;;
5811;SDS011;2932;52.400;9.558;2022-08-30T03:10:04;1.40;;;1.30;;
5811;SDS011;2932;52.400;9.558;2022-08-30T03:12:30;2.17;;;1.20;;
5811;SDS011;2932;52.400;9.558;2022-08-30T03:14:56;1.48;;;1.30;;
5811;SDS011;2932;52.400;9.558;2022-08-30T03:17:22;2.17;;;1.23;;
5811;SDS011;2932;52.400;9.558;2022-08-30T03:19:47;1.30;;;1.17;;
5811;SDS011;2932;52.400;9.558;2022-08-30T03:22:13;1.88;;;1.58;;
5811;SDS011;2932;52.400;9.558;2022-08-30T03:24:38;1.40;;;1.30;;
5811;SDS011;2932;52.400;9.558;2022-08-30T03:27:04;2.40;;;1.27;;
5811;SDS011;2932;52.400;9.558;2022-08-30T03:29:31;3.80;;;1.58;;
5811;SDS011;2932;52.400;9.558;2022-08-30T03:31:56;1.45;;;1.10;;
5811;SDS011;2932;52.400;9.558;2022-08-30T03:34:22;1.23;;;1.13;;
5811;SDS011;2932;52.400;9.558;2022-08-30T03:36:49;2.00;;;1.48;;
5811;SDS011;2932;52.400;9.558;2022-08-30T03:39:19;3.35;;;1.55;;
5811;SDS011;2932;52.400;9.558;2022-08-30T03:41:45;1.55;;;1.35;;
5811;SDS011;2932;52.400;9.558;2022-08-30T03:44:11;1.45;;;1.17;;
5811;SDS011;2932;52.400;9.558;2022-08-30T03:46:36;4.15;;;1.42;;
5811;SDS011;2932;52.400;9.558;2022-08-30T03:49:02;2.40;;;1.73;;
5811;SDS011;2932;52.400;9.558;2022-08-30T03:51:28;3.20;;;1.50;;
5811;SDS011;2932;52.400;9.558;2022-08-30T03:53:54;1.77;;;1.38;;
5811;SDS011;2932;52.400;9.558;2022-08-30T03:56:19;2.65;;;1.42;;
5811;SDS011;2932;52.400;9.558;2022-08-30T03:58:44;1.75;;;1.40;;
5811;SDS011;2932;52.400;9.558;2022-08-30T04:01:10;1.48;;;1.20;;
5811;SDS011;2932;52.400;9.558;2022-08-30T04:03:35;2.15;;;1.40;;
5811;SDS011;2932;52.400;9.558;2022-08-30T04:06:01;2.88;;;1.35;;
5811;SDS011;2932;52.400;9.558;2022-08-30T04:08:27;1.90;;;1.70;;
5811;SDS011;2932;52.400;9.558;2022-08-30T04:10:52;3.60;;;1.77;;
5811;SDS011;2932;52.400;9.558;2022-08-30T04:13:19;2.33;;;1.90;;
5811;SDS011;2932;52.400;9.558;2022-08-30T04:15:46;3.72;;;1.77;;
5811;SDS011;2932;52.400;9.558;2022-08-30T04:18:11;1.77;;;1.67;;
5811;SDS011;2932;52.400;9.558;2022-08-30T04:20:37;1.60;;;1.40;;
5811;SDS011;2932;52.400;9.558;2022-08-30T04:23:06;2.17;;;1.80;;
5811;SDS011;2932;52.400;9.558;2022-08-30T04:25:35;2.33;;;1.70;;
5811;SDS011;2932;52.400;9.558;2022-08-30T04:28:02;3.17;;;1.77;;
5811;SDS011;2932;52.400;9.558;2022-08-30T04:30:28;1.55;;;1.40;;
5811;SDS011;2932;52.400;9.558;2022-08-30T04:32:54;4.32;;;2.28;;
5811;SDS011;2932;52.400;9.558;2022-08-30T04:35:20;3.53;;;1.73;;
5811;SDS011;2932;52.400;9.558;2022-08-30T04:37:46;3.22;;;1.67;;
5811;SDS011;2932;52.400;9.558;2022-08-30T04:40:11;4.03;;;3.10;;
5811;SDS011;2932;52.400;9.558;2022-08-30T04:42:38;2.35;;;1.90;;
5811;SDS011;2932;52.400;9.558;2022-08-30T04:45:06;2.90;;;2.05;;
5811;SDS011;2932;52.400;9.558;2022-08-30T04:47:34;2.00;;;1.80;;
5811;SDS011;2932;52.400;9.558;2022-08-30T04:50:00;2.95;;;2.08;;
5811;SDS011;2932;52.400;9.558;2022-08-30T04:52:27;2.22;;;1.80;;
5811;SDS011;2932;52.400;9.558;2022-08-30T04:54:58;2.33;;;2.10;;
5811;SDS011;2932;52.400;9.558;2022-08-30T04:57:24;3.53;;;2.20;;
5811;SDS011;2932;52.400;9.558;2022-08-30T04:59:51;2.42;;;2.10;;
5811;SDS011;2932;52.400;9.558;2022-08-30T05:02:17;2.78;;;2.58;;
5811;SDS011;2932;52.400;9.558;2022-08-30T05:04:42;2.65;;;2.45;;
5811;SDS011;2932;52.400;9.558;2022-08-30T05:07:28;3.05;;;2.13;;
5811;SDS011;2932;52.400;9.558;2022-08-30T05:09:55;3.05;;;2.50;;
5811;SDS011;2932;52.400;9.558;2022-08-30T05:12:21;3.75;;;3.40;;
5811;SDS011;2932;52.400;9.558;2022-08-30T05:14:47;3.58;;;2.90;;
5811;SDS011;2932;52.400;9.558;2022-08-30T05:17:12;3.25;;;2.95;;
5811;SDS011;2932;52.400;9.558;2022-08-30T05:19:37;3.17;;;2.97;;
5811;SDS011;2932;52.400;9.558;2022-08-30T05:22:03;3.20;;;2.90;;
5811;SDS011;2932;52.400;9.558;2022-08-30T05:24:28;5.07;;;4.15;;
5811;SDS011;2932;52.400;9.558;2022-08-30T05:26:56;4.78;;;3.95;;
5811;SDS011;2932;52.400;9.558;2022-08-30T05:29:22;4.10;;;3.38;;
5811;SDS011;2932;52.400;9.558;2022-08-30T05:31:48;3.58;;;3.25;;
5811;SDS011;2932;52.400;9.558;2022-08-30T05:34:13;3.60;;;3.30;;
5811;SDS011;2932;52.400;9.558;2022-08-30T05:36:38;3.30;;;3.00;;
5811;SDS011;2932;52.400;9.558;2022-08-30T05:39:05;3.63;;;3.00;;
5811;SDS011;2932;52.400;9.558;2022-08-30T05:41:31;3.42;;;3.13;;
5811;SDS011;2932;52.400;9.558;2022-08-30T05:43:58;5.20;;;3.40;;
5811;SDS011;2932;52.400;9.558;2022-08-30T05:46:25;3.30;;;3.00;;
5811;SDS011;2932;52.400;9.558;2022-08-30T05:48:56;3.15;;;2.95;;
5811;SDS011;2932;52.400;9.558;2022-08-30T05:51:23;4.32;;;3.30;;
5811;SDS011;2932;52.400;9.558;2022-08-30T05:53:50;3.30;;;2.90;;
5811;SDS011;2932;52.400;9.558;2022-08-30T05:56:18;3.33;;;3.03;;
5811;SDS011;2932;52.400;9.558;2022-08-30T05:58:46;3.38;;;3.08;;
5811;SDS011;2932;52.400;9.558;2022-08-30T06:03:52;3.58;;;3.08;;
5811;SDS011;2932;52.400;9.558;2022-08-30T06:06:19;4.88;;;2.85;;
5811;SDS011;2932;52.400;9.558;2022-08-30T06:08:45;3.78;;;3.13;;
5811;SDS011;2932;52.400;9.558;2022-08-30T06:11:17;4.72;;;3.85;;
5811;SDS011;2932;52.400;9.558;2022-08-30T06:13:44;5.45;;;3.53;;
5811;SDS011;2932;52.400;9.558;2022-08-30T06:16:11;4.68;;;3.20;;
5811;SDS011;2932;52.400;9.558;2022-08-30T06:18:38;4.07;;;3.38;;
5811;SDS011;2932;52.400;9.558;2022-08-30T06:21:03;4.57;;;3.70;;
5811;SDS011;2932;52.400;9.558;2022-08-30T06:23:29;4.22;;;3.80;;
5811;SDS011;2932;52.400;9.558;2022-08-30T06:25:55;5.53;;;3.40;;
5811;SDS011;2932;52.400;9.558;2022-08-30T06:28:20;4.05;;;3.28;;
5811;SDS011;2932;52.400;9.558;2022-08-30T06:30:46;3.45;;;2.90;;
5811;SDS011;2932;52.400;9.558;2022-08-30T06:33:11;3.75;;;3.00;;
5811;SDS011;2932;52.400;9.558;2022-08-30T06:35:37;2.83;;;2.63;;
5811;SDS011;2932;52.400;9.558;2022-08-30T06:38:03;2.50;;;2.30;;
5811;SDS011;2932;52.400;9.558;2022-08-30T06:40:28;3.13;;;2.83;;
5811;SDS011;2932;52.400;9.558;2022-08-30T06:42:54;3.85;;;3.25;;
5811;SDS011;2932;52.400;9.558;2022-08-30T06:45:19;3.70;;;3.28;;
5811;SDS011;2932;52.400;9.558;2022-08-30T06:47:45;3.33;;;2.92;;
5811;SDS011;2932;52.400;9.558;2022-08-30T06:50:12;4.97;;;3.80;;
5811;SDS011;2932;52.400;9.558;2022-08-30T06:52:39;6.25;;;4.40;;
5811;SDS011;2932;52.400;9.558;2022-08-30T06:55:07;4.38;;;3.90;;
5811;SDS011;2932;52.400;9.558;2022-08-30T06:57:33;6.32;;;4.35;;
5811;SDS011;2932;52.400;9.558;2022-08-30T06:59:59;5.35;;;4.40;;
5811;SDS011;2932;52.400;9.558;2022-08-30T07:02:26;5.38;;;4.70;;
5811;SDS011;2932;52.400;9.558;2022-08-30T07:04:51;5.07;;;4.40;;
5811;SDS011;2932;52.400;9.558;2022-08-30T07:07:17;6.30;;;4.50;;
5811;SDS011;2932;52.400;9.558;2022-08-30T07:09:42;4.70;;;4.13;;
5811;SDS011;2932;52.400;9.558;2022-08-30T07:12:11;5.75;;;4.22;;
5811;SDS011;2932;52.400;9.558;2022-08-30T07:14:37;6.05;;;5.45;;
5811;SDS011;2932;52.400;9.558;2022-08-30T07:17:04;7.28;;;5.75;;
5811;SDS011;2932;52.400;9.558;2022-08-30T07:19:50;8.10;;;6.47;;
5811;SDS011;2932;52.400;9.558;2022-08-30T07:22:15;6.15;;;5.55;;
5811;SDS011;2932;52.400;9.558;2022-08-30T07:24:41;5.90;;;5.30;;
5811;SDS011;2932;52.400;9.558;2022-08-30T07:27:07;5.45;;;4.95;;
5811;SDS011;2932;52.400;9.558;2022-08-30T07:29:33;5.75;;;5.20;;
5811;SDS011;2932;52.400;9.558;2022-08-30T07:31:58;8.18;;;6.60;;
5811;SDS011;2932;52.400;9.558;2022-08-30T07:34:23;5.78;;;5.20;;
5811;SDS011;2932;52.400;9.558;2022-08-30T07:36:49;6.25;;;5.55;;
5811;SDS011;2932;52.400;9.558;2022-08-30T07:39:14;6.65;;;6.00;;
5811;SDS011;2932;52.400;9.558;2022-08-30T07:41:39;7.07;;;6.38;;
5811;SDS011;2932;52.400;9.558;2022-08-30T07:44:06;8.23;;;6.72;;
5811;SDS011;2932;52.400;9.558;2022-08-30T07:46:32;8.60;;;7.18;;
5811;SDS011;2932;52.400;9.558;2022-08-30T07:48:58;6.60;;;5.50;;
5811;SDS011;2932;52.400;9.558;2022-08-30T07:51:25;6.10;;;5.50;;
5811;SDS011;2932;52.400;9.558;2022-08-30T07:53:52;5.60;;;5.10;;
5811;SDS011;2932;52.400;9.558;2022-08-30T07:56:18;6.15;;;5.32;;
5811;SDS011;2932;52.400;9.558;2022-08-30T07:58:45;6.05;;;5.45;;
5811;SDS011;2932;52.400;9.558;2022-08-30T08:01:10;6.10;;;5.50;;
5811;SDS011;2932;52.400;9.558;2022-08-30T08:03:37;6.93;;;5.35;;
5811;SDS011;2932;52.400;9.558;2022-08-30T08:06:07;5.20;;;4.80;;
5811;SDS011;2932;52.400;9.558;2022-08-30T08:08:34;5.60;;;5.00;;
5811;SDS011;2932;52.400;9.558;2022-08-30T08:11:08;5.60;;;5.10;;
5811;SDS011;2932;52.400;9.558;2022-08-30T08:13:37;7.07;;;6.20;;
5811;SDS011;2932;52.400;9.558;2022-08-30T08:16:02;7.15;;;6.55;;
5811;SDS011;2932;52.400;9.558;2022-08-30T08:18:28;6.10;;;5.60;;
5811;SDS011;2932;52.400;9.558;2022-08-30T08:20:53;6.95;;;5.93;;
5811;SDS011;2932;52.400;9.558;2022-08-30T08:23:18;5.57;;;5.03;;
5811;SDS011;2932;52.400;9.558;2022-08-30T08:25:45;5.65;;;5.15;;
5811;SDS011;2932;52.400;9.558;2022-08-30T08:28:11;5.47;;;4.97;;
5811;SDS011;2932;52.400;9.558;2022-08-30T08:30:36;4.43;;;4.03;;
5811;SDS011;2932;52.400;9.558;2022-08-30T08:33:03;4.30;;;3.90;;
5811;SDS011;2932;52.400;9.558;2022-08-30T08:35:29;6.25;;;4.25;;
5811;SDS011;2932;52.400;9.558;2022-08-30T08:37:55;4.03;;;3.10;;
5811;SDS011;2932;52.400;9.558;2022-08-30T08:40:20;4.25;;;3.75;;
5811;SDS011;2932;52.400;9.558;2022-08-30T08:43:04;5.10;;;4.60;;
5811;SDS011;2932;52.400;9.558;2022-08-30T08:48:54;4.40;;;3.97;;
5811;SDS011;2932;52.400;9.558;2022-08-30T08:51:10;5.03;;;4.63;;
5811;SDS011;2932;52.400;9.558;2022-08-30T08:54:00;5.38;;;4.88;;
5811;SDS011;2932;52.400;9.558;2022-08-30T08:56:30;5.28;;;4.75;;
5811;SDS011;2932;52.400;9.558;2022-08-30T08:58:57;6.05;;;5.50;;
5811;SDS011;2932;52.400;9.558;2022-08-30T09:01:24;6.65;;;5.95;;
5811;SDS011;2932;52.400;9.558;2022-08-30T09:03:54;6.72;;;5.38;;
5811;SDS011;2932;52.400;9.558;2022-08-30T09:08:52;4.75;;;4.10;;
5811;SDS011;2932;52.400;9.558;2022-08-30T09:11:25;5.43;;;4.93;;
5811;SDS011;2932;52.400;9.558;2022-08-30T09:13:52;7.15;;;6.50;;
5811;SDS011;2932;52.400;9.558;2022-08-30T09:19:26;6.00;;;5.40;;
5811;SDS011;2932;52.400;9.558;2022-08-30T09:22:23;5.13;;;4.32;;
5811;SDS011;2932;52.400;9.558;2022-08-30T09:25:07;6.18;;;5.22;;
5811;SDS011;2932;52.400;9.558;2022-08-30T09:27:46;5.72;;;4.97;;
5811;SDS011;2932;52.400;9.558;2022-08-30T09:30:15;6.03;;;5.43;;
5811;SDS011;2932;52.400;9.558;2022-08-30T09:32:51;4.50;;;4.10;;
5811;SDS011;2932;52.400;9.558;2022-08-30T09:37:56;4.50;;;4.10;;
5811;SDS011;2932;52.400;9.558;2022-08-30T09:40:38;5.93;;;4.53;;
5811;SDS011;2932;52.400;9.558;2022-08-30T09:45:41;5.28;;;4.38;;
5811;SDS011;2932;52.400;9.558;2022-08-30T09:53:43;5.97;;;3.35;;
5811;SDS011;2932;52.400;9.558;2022-08-30T10:05:15;4.82;;;4.43;;
5811;SDS011;2932;52.400;9.558;2022-08-30T10:10:42;3.85;;;3.58;;
5811;SDS011;2932;52.400;9.558;2022-08-30T10:25:09;5.15;;;4.70;;
5811;SDS011;2932;52.400;9.558;2022-08-30T10:27:51;4.72;;;4.32;;
5811;SDS011;2932;52.400;9.558;2022-08-30T10:30:39;4.25;;;3.95;;
5811;SDS011;2932;52.400;9.558;2022-08-30T10:33:11;4.80;;;4.40;;
5811;SDS011;2932;52.400;9.558;2022-08-30T10:35:43;4.00;;;3.60;;
5811;SDS011;2932;52.400;9.558;2022-08-30T10:38:26;3.22;;;2.92;;
5811;SDS011;2932;52.400;9.558;2022-08-30T10:41:38;3.20;;;2.92;;
5811;SDS011;2932;52.400;9.558;2022-08-30T10:44:00;3.95;;;3.65;;
5811;SDS011;2932;52.400;9.558;2022-08-30T10:49:04;3.10;;;2.90;;
5811;SDS011;2932;52.400;9.558;2022-08-30T10:51:41;3.10;;;2.90;;
5811;SDS011;2932;52.400;9.558;2022-08-30T10:54:11;3.55;;;3.25;;
5811;SDS011;2932;52.400;9.558;2022-08-30T10:56:41;3.58;;;3.33;;
5811;SDS011;2932;52.400;9.558;2022-08-30T10:59:08;3.25;;;3.05;;
5811;SDS011;2932;52.400;9.558;2022-08-30T11:01:38;3.22;;;2.90;;
5811;SDS011;2932;52.400;9.558;2022-08-30T11:12:08;1.85;;;1.75;;
5811;SDS011;2932;52.400;9.558;2022-08-30T11:14:54;2.50;;;1.60;;
5811;SDS011;2932;52.400;9.558;2022-08-30T11:19:49;2.75;;;1.60;;
5811;SDS011;2932;52.400;9.558;2022-08-30T11:22:33;2.15;;;1.52;;
5811;SDS011;2932;52.400;9.558;2022-08-30T11:27:46;1.60;;;1.50;;
5811;SDS011;2932;52.400;9.558;2022-08-30T11:33:05;2.97;;;2.25;;
5811;SDS011;2932;52.400;9.558;2022-08-30T11:35:54;2.40;;;1.80;;
5811;SDS011;2932;52.400;9.558;2022-08-30T11:41:05;1.65;;;1.52;;
5811;SDS011;2932;52.400;9.558;2022-08-30T11:46:18;1.67;;;1.33;;
5811;SDS011;2932;52.400;9.558;2022-08-30T11:48:50;1.75;;;1.23;;
5811;SDS011;2932;52.400;9.558;2022-08-30T11:57:32;1.70;;;1.25;;
5811;SDS011;2932;52.400;9.558;2022-08-30T12:10:44;1.50;;;1.40;;
5811;SDS011;2932;52.400;9.558;2022-08-30T12:18:33;0.80;;;0.80;;
5811;SDS011;2932;52.400;9.558;2022-08-30T12:21:28;1.10;;;1.08;;
5811;SDS011;2932;52.400;9.558;2022-08-30T12:26:56;1.77;;;1.23;;
5811;SDS011;2932;52.400;9.558;2022-08-30T12:29:24;2.25;;;1.00;;
5811;SDS011;2932;52.400;9.558;2022-08-30T12:31:52;1.00;;;0.90;;
5811;SDS011;2932;52.400;9.558;2022-08-30T12:34:22;1.38;;;0.90;;
5811;SDS011;2932;52.400;9.558;2022-08-30T12:44:45;2.58;;;1.40;;
5811;SDS011;2932;52.400;9.558;2022-08-30T12:47:11;2.55;;;1.35;;
5811;SDS011;2932;52.400;9.558;2022-08-30T12:49:42;2.22;;;2.00;;
5811;SDS011;2932;52.400;9.558;2022-08-30T12:55:06;1.63;;;1.38;;
5811;SDS011;2932;52.400;9.558;2022-08-30T12:57:53;1.30;;;1.20;;
5811;SDS011;2932;52.400;9.558;2022-08-30T13:00:35;2.42;;;1.20;;
5811;SDS011;2932;52.400;9.558;2022-08-30T13:03:24;1.30;;;1.20;;
5811;SDS011;2932;52.400;9.558;2022-08-30T13:05:47;2.25;;;1.17;;
5811;SDS011;2932;52.400;9.558;2022-08-30T13:08:34;0.80;;;0.80;;
5811;SDS011;2932;52.400;9.558;2022-08-30T13:11:10;0.65;;;0.65;;
5811;SDS011;2932;52.400;9.558;2022-08-30T13:13:55;1.00;;;1.00;;
5811;SDS011;2932;52.400;9.558;2022-08-30T13:16:40;2.55;;;1.02;;
5811;SDS011;2932;52.400;9.558;2022-08-30T13:21:58;1.58;;;0.90;;
5811;SDS011;2932;52.400;9.558;2022-08-30T13:24:25;1.00;;;0.77;;
5811;SDS011;2932;52.400;9.558;2022-08-30T13:26:52;1.98;;;0.80;;
5811;SDS011;2932;52.400;9.558;2022-08-30T13:29:24;1.33;;;0.90;;
5811;SDS011;2932;52.400;9.558;2022-08-30T13:31:50;2.47;;;0.77;;
5811;SDS011;2932;52.400;9.558;2022-08-30T13:34:16;1.40;;;0.80;;
5811;SDS011;2932;52.400;9.558;2022-08-30T13:36:47;1.15;;;0.70;;
5811;SDS011;2932;52.400;9.558;2022-08-30T13:39:14;1.05;;;0.88;;
5811;SDS011;2932;52.400;9.558;2022-08-30T13:41:41;2.58;;;0.82;;
5811;SDS011;2932;52.400;9.558;2022-08-30T13:44:07;0.80;;;0.80;;
5811;SDS011;2932;52.400;9.558;2022-08-30T13:46:32;1.23;;;0.90;;
5811;SDS011;2932;52.400;9.558;2022-08-30T13:49:06;1.00;;;0.95;;
5811;SDS011;2932;52.400;9.558;2022-08-30T13:51:33;1.10;;;1.00;;
5811;SDS011;2932;52.400;9.558;2022-08-30T13:53:58;2.53;;;1.00;;
5811;SDS011;2932;52.400;9.558;2022-08-30T13:56:27;0.88;;;0.82;;
5811;SDS011;2932;52.400;9.558;2022-08-30T13:58:56;0.90;;;0.90;;
5811;SDS011;2932;52.400;9.558;2022-08-30T14:01:25;3.25;;;1.10;;
5811;SDS011;2932;52.400;9.558;2022-08-30T14:03:51;3.67;;;0.93;;
5811;SDS011;2932;52.400;9.558;2022-08-30T14:06:16;2.45;;;0.73;;
5811;SDS011;2932;52.400;9.558;2022-08-30T14:08:42;1.50;;;0.90;;
5811;SDS011;2932;52.400;9.558;2022-08-30T14:11:07;1.30;;;1.20;;
5811;SDS011;2932;52.400;9.558;2022-08-30T14:13:35;3.40;;;0.80;;
5811;SDS011;2932;52.400;9.558;2022-08-30T14:16:02;1.77;;;0.90;;
5811;SDS011;2932;52.400;9.558;2022-08-30T14:18:29;1.02;;;0.93;;
5811;SDS011;2932;52.400;9.558;2022-08-30T14:20:54;1.92;;;0.95;;
5811;SDS011;2932;52.400;9.558;2022-08-30T14:23:20;1.10;;;1.00;;
5811;SDS011;2932;52.400;9.558;2022-08-30T14:25:46;1.05;;;1.00;;
5811;SDS011;2932;52.400;9.558;2022-08-30T14:28:11;1.38;;;1.20;;
5811;SDS011;2932;52.400;9.558;2022-08-30T14:30:36;2.00;;;1.15;;
5811;SDS011;2932;52.400;9.558;2022-08-30T14:33:03;1.05;;;0.95;;
5811;SDS011;2932;52.400;9.558;2022-08-30T14:35:28;1.15;;;1.00;;
5811;SDS011;2932;52.400;9.558;2022-08-30T14:37:54;2.17;;;0.90;;
5811;SDS011;2932;52.400;9.558;2022-08-30T14:40:19;1.63;;;1.00;;
5811;SDS011;2932;52.400;9.558;2022-08-30T14:42:44;1.00;;;1.00;;
5811;SDS011;2932;52.400;9.558;2022-08-30T14:45:10;0.90;;;0.90;;
5811;SDS011;2932;52.400;9.558;2022-08-30T14:47:36;2.85;;;1.10;;
5811;SDS011;2932;52.400;9.558;2022-08-30T14:50:02;1.02;;;0.77;;
5811;SDS011;2932;52.400;9.558;2022-08-30T14:52:28;3.53;;;0.90;;
5811;SDS011;2932;52.400;9.558;2022-08-30T14:54:56;1.73;;;0.90;;
5811;SDS011;2932;52.400;9.558;2022-08-30T14:57:22;0.80;;;0.80;;
5811;SDS011;2932;52.400;9.558;2022-08-30T14:59:48;0.95;;;0.90;;
5811;SDS011;2932;52.400;9.558;2022-08-30T15:02:14;1.20;;;1.10;;
5811;SDS011;2932;52.400;9.558;2022-08-30T15:04:40;1.33;;;0.90;;
5811;SDS011;2932;52.400;9.558;2022-08-30T15:07:05;1.20;;;0.90;;
5811;SDS011;2932;52.400;9.558;2022-08-30T15:09:31;2.15;;;0.85;;
5811;SDS011;2932;52.400;9.558;2022-08-30T15:11:57;0.98;;;0.90;;
5811;SDS011;2932;52.400;9.558;2022-08-30T15:14:23;1.58;;;0.70;;
5811;SDS011;2932;52.400;9.558;2022-08-30T15:16:53;2.03;;;0.70;;
5811;SDS011;2932;52.400;9.558;2022-08-30T15:19:19;0.70;;;0.70;;
5811;SDS011;2932;52.400;9.558;2022-08-30T15:21:45;1.70;;;0.85;;
5811;SDS011;2932;52.400;9.558;2022-08-30T15:24:16;0.70;;;0.70;;
5811;SDS011;2932;52.400;9.558;2022-08-30T15:26:43;1.35;;;0.80;;
5811;SDS011;2932;52.400;9.558;2022-08-30T15:29:10;1.77;;;0.95;;
5811;SDS011;2932;52.400;9.558;2022-08-30T15:31:37;2.65;;;1.00;;
5811;SDS011;2932;52.400;9.558;2022-08-30T15:34:04;1.88;;;1.20;;
5811;SDS011;2932;52.400;9.558;2022-08-30T15:36:30;4.03;;;1.10;;
5811;SDS011;2932;52.400;9.558;2022-08-30T15:38:56;2.90;;;0.90;;
5811;SDS011;2932;52.400;9.558;2022-08-30T15:41:23;1.10;;;1.00;;
5811;SDS011;2932;52.400;9.558;2022-08-30T15:43:49;1.08;;;0.82;;
5811;SDS011;2932;52.400;9.558;2022-08-30T15:49:13;2.28;;;0.90;;
5811;SDS011;2932;52.400;9.558;2022-08-30T15:51:43;0.90;;;0.90;;
5811;SDS011;2932;52.400;9.558;2022-08-30T15:54:10;1.70;;;0.95;;
5811;SDS011;2932;52.400;9.558;2022-08-30T15:56:39;1.60;;;1.10;;
5811;SDS011;2932;52.400;9.558;2022-08-30T15:59:04;2.15;;;0.90;;
5811;SDS011;2932;52.400;9.558;2022-08-30T16:01:30;0.57;;;0.57;;
5811;SDS011;2932;52.400;9.558;2022-08-30T16:03:56;0.70;;;0.57;;
5811;SDS011;2932;52.400;9.558;2022-08-30T16:06:23;2.35;;;0.80;;
5811;SDS011;2932;52.400;9.558;2022-08-30T16:08:51;0.73;;;0.68;;
5811;SDS011;2932;52.400;9.558;2022-08-30T16:11:18;0.60;;;0.60;;
5811;SDS011;2932;52.400;9.558;2022-08-30T16:13:46;1.33;;;0.82;;
5811;SDS011;2932;52.400;9.558;2022-08-30T16:16:13;0.70;;;0.70;;
5811;SDS011;2932;52.400;9.558;2022-08-30T16:18:38;0.85;;;0.73;;
5811;SDS011;2932;52.400;9.558;2022-08-30T16:21:05;0.60;;;0.60;;
5811;SDS011;2932;52.400;9.558;2022-08-30T16:23:33;0.63;;;0.63;;
5811;SDS011;2932;52.400;9.558;2022-08-30T16:25:59;1.20;;;0.60;;
5811;SDS011;2932;52.400;9.558;2022-08-30T16:28:25;2.03;;;0.82;;
5811;SDS011;2932;52.400;9.558;2022-08-30T16:30:51;1.60;;;0.90;;
5811;SDS011;2932;52.400;9.558;2022-08-30T16:33:17;1.23;;;0.90;;
5811;SDS011;2932;52.400;9.558;2022-08-30T16:35:42;0.85;;;0.75;;
5811;SDS011;2932;52.400;9.558;2022-08-30T16:38:07;1.38;;;0.50;;
5811;SDS011;2932;52.400;9.558;2022-08-30T16:40:33;1.40;;;0.85;;
5811;SDS011;2932;52.400;9.558;2022-08-30T16:42:59;2.30;;;1.10;;
5811;SDS011;2932;52.400;9.558;2022-08-30T16:45:24;2.00;;;1.27;;
5811;SDS011;2932;52.400;9.558;2022-08-30T16:47:50;1.17;;;0.93;;
5811;SDS011;2932;52.400;9.558;2022-08-30T16:50:15;2.55;;;0.70;;
5811;SDS011;2932;52.400;9.558;2022-08-30T16:52:42;0.63;;;0.60;;
5811;SDS011;2932;52.400;9.558;2022-08-30T16:55:07;1.73;;;0.70;;
5811;SDS011;2932;52.400;9.558;2022-08-30T16:57:33;1.58;;;0.50;;
5811;SDS011;2932;52.400;9.558;2022-08-30T16:59:59;1.25;;;0.50;;
5811;SDS011;2932;52.400;9.558;2022-08-30T17:02:25;1.70;;;0.57;;
5811;SDS011;2932;52.400;9.558;2022-08-30T17:04:50;0.68;;;0.50;;
5811;SDS011;2932;52.400;9.558;2022-08-30T17:07:16;0.50;;;0.50;;
5811;SDS011;2932;52.400;9.558;2022-08-30T17:09:41;0.60;;;0.60;;
5811;SDS011;2932;52.400;9.558;2022-08-30T17:12:06;1.67;;;0.40;;
5811;SDS011;2932;52.400;9.558;2022-08-30T17:14:32;0.70;;;0.70;;
5811;SDS011;2932;52.400;9.558;2022-08-30T17:16:57;1.80;;;1.05;;